createdAt,value
2022-08-21T00:09:31.030Z,97548.97
2022-08-21T00:19:33.254Z,97547.06
2022-08-21T00:29:34.752Z,97534.88
2022-08-21T00:39:36.253Z,97534.06
2022-08-21T00:49:39.056Z,97535.44
2022-08-21T00:59:41.595Z,97533.31
2022-08-21T01:09:44.310Z,97528.09
2022-08-21T01:19:45.814Z,97520.69
2022-08-21T01:29:57.516Z,97511.13
2022-08-21T01:39:59.276Z,97515.28
2022-08-21T01:50:00.963Z,97509.13
2022-08-21T02:00:05.047Z,97520.31
2022-08-21T02:10:16.952Z,97514.38
2022-08-21T02:20:28.260Z,97507.22
2022-08-21T02:30:38.878Z,97503.09
2022-08-21T02:40:43.877Z,97505.38
2022-08-21T02:50:56.800Z,97509.22
2022-08-21T03:00:59.317Z,97509.75
2022-08-21T03:11:01.976Z,97506.22
2022-08-21T03:21:03.706Z,97513.22
2022-08-21T03:31:06.591Z,97522.81
2022-08-21T03:41:08.889Z,97525.28
2022-08-21T03:51:10.392Z,97521.31
2022-08-21T04:01:12.049Z,97526.06
2022-08-21T04:11:13.989Z,97550.13
2022-08-21T04:21:15.502Z,97550.63
2022-08-21T04:31:18.347Z,97550.47
2022-08-21T04:41:27.846Z,97568.03
2022-08-21T04:51:34.737Z,97571.47
2022-08-21T05:01:38.754Z,97583.84
2022-08-21T05:11:40.948Z,97580.53
2022-08-21T05:21:44.952Z,97573.25
2022-08-21T05:31:47.701Z,97569.47
2022-08-21T05:41:50.180Z,97580.28
2022-08-21T05:51:51.675Z,97586.56
2022-08-21T06:01:53.685Z,97586.47
2022-08-21T06:11:55.286Z,97586.00
2022-08-21T06:21:56.801Z,97593.78
2022-08-21T06:31:58.301Z,97594.66
2022-08-21T06:42:01.103Z,97594.75
2022-08-21T06:52:04.084Z,97589.06
2022-08-21T07:02:05.760Z,97577.00
2022-08-21T07:12:07.632Z,97578.22
2022-08-21T07:22:09.238Z,97574.19
2022-08-21T07:32:10.769Z,97573.94
2022-08-21T07:42:12.331Z,97577.69
2022-08-21T07:52:13.826Z,97589.88
2022-08-21T08:02:30.416Z,97581.97
2022-08-21T08:12:31.937Z,97586.19
2022-08-21T08:22:35.665Z,97585.53
2022-08-21T08:32:46.993Z,97580.19
2022-08-21T08:42:48.581Z,97573.91
2022-08-21T08:52:55.760Z,97575.50
2022-08-21T09:03:00.799Z,97564.19
2022-08-21T09:13:24.106Z,97565.06
2022-08-21T09:24:03.135Z,97544.03
2022-08-21T09:34:09.169Z,97532.31
2022-08-21T09:44:10.721Z,97513.91
2022-08-21T09:54:18.346Z,97504.06
2022-08-21T10:04:28.944Z,97490.03
2022-08-21T10:14:54.541Z,97481.88
2022-08-21T10:25:31.752Z,97459.44
2022-08-21T10:35:43.767Z,97455.91
2022-08-21T10:46:09.678Z,97448.25
2022-08-21T10:56:24.477Z,97439.22
2022-08-21T11:06:31.085Z,97417.75
2022-08-21T11:16:38.811Z,97424.31
2022-08-21T11:27:05.962Z,97425.25
2022-08-21T11:37:14.766Z,97415.81
2022-08-21T11:47:26.651Z,97400.22
2022-08-21T11:57:51.861Z,97398.69
2022-08-21T12:08:15.182Z,97397.06
2022-08-21T12:18:30.063Z,97390.53
2022-08-21T12:28:32.385Z,97384.81
2022-08-21T12:38:46.925Z,97372.06
2022-08-21T12:48:57.535Z,97350.09
2022-08-21T12:59:08.829Z,97342.66
2022-08-21T13:09:17.202Z,97340.19
2022-08-21T13:19:23.879Z,97331.00
2022-08-21T13:29:32.052Z,97328.94
2022-08-21T13:39:34.082Z,97305.72
2022-08-21T13:49:43.467Z,97303.66
2022-08-21T13:59:45.383Z,97304.75
2022-08-21T14:09:47.785Z,97313.56
2022-08-21T14:19:49.470Z,97310.78
2022-08-21T14:29:50.941Z,97300.91
2022-08-21T14:39:52.438Z,97291.88
2022-08-21T14:49:54.943Z,97287.06
2022-08-21T15:00:01.228Z,97285.97
2022-08-21T15:10:03.907Z,97272.06
2022-08-21T15:20:06.899Z,97271.59
2022-08-21T15:30:08.911Z,97271.38
2022-08-21T15:40:11.220Z,97259.50
2022-08-21T15:50:14.286Z,97257.56
2022-08-21T16:00:24.051Z,97260.19
2022-08-21T16:10:29.779Z,97256.72
2022-08-21T16:20:32.694Z,97245.16
2022-08-21T16:30:35.013Z,97243.81
2022-08-21T16:40:36.670Z,97236.34
2022-08-21T16:50:38.433Z,97230.38
2022-08-21T17:00:39.955Z,97236.53
2022-08-21T17:10:47.926Z,97240.31
2022-08-21T17:20:50.600Z,97246.00
2022-08-21T17:30:57.574Z,97247.81
2022-08-21T17:41:00.607Z,97249.72
2022-08-21T17:51:02.338Z,97248.56
2022-08-21T18:01:05.700Z,97253.06
2022-08-21T18:11:07.597Z,97260.00
2022-08-21T18:21:12.506Z,97266.41
2022-08-21T18:31:14.250Z,97280.81
2022-08-21T18:41:16.338Z,97288.88
2022-08-21T18:51:17.842Z,97297.47
2022-08-21T19:01:20.901Z,97302.16
2022-08-21T19:11:25.049Z,97304.19
2022-08-21T19:21:27.075Z,97309.28
2022-08-21T19:31:32.477Z,97326.66
2022-08-21T19:41:36.958Z,97319.41
2022-08-21T19:51:38.677Z,97315.03
2022-08-21T20:01:40.301Z,97320.00
2022-08-21T20:11:48.851Z,97322.31
2022-08-21T20:21:50.346Z,97318.00
2022-08-21T20:31:52.007Z,97317.66
2022-08-21T20:41:54.563Z,97319.66
2022-08-21T20:51:58.645Z,97318.97
2022-08-21T21:02:24.337Z,97316.41
2022-08-21T21:12:34.920Z,97324.28
2022-08-21T21:22:45.460Z,97322.25
2022-08-21T21:32:47.781Z,97323.22
2022-08-21T21:42:52.003Z,97327.03
2022-08-21T21:53:12.389Z,97329.59
2022-08-21T22:03:29.182Z,97322.50
2022-08-21T22:13:56.053Z,97328.34
2022-08-21T22:24:04.129Z,97335.22
2022-08-21T22:34:19.413Z,97337.38
2022-08-21T22:44:27.222Z,97370.63
2022-08-21T22:54:35.442Z,97360.13
2022-08-21T23:04:46.854Z,97358.25
2022-08-21T23:14:54.748Z,97357.31
2022-08-21T23:25:44.536Z,97351.00
2022-08-21T23:36:21.486Z,97356.94
2022-08-21T23:46:52.521Z,97372.47
2022-08-21T23:57:26.642Z,97365.69
